Time;durP1;ratioP1;P1;durP2;ratioP2;P2;SDS_P1;SDS_P2;PMS_P1;PMS_P2;Temp;Humidity;BMP_temperature;BMP_pressure;BME280_temperature;BME280_humidity;BME280_pressure;Samples;Min_cycle;Max_cycle;Signal;HPM_P1;HPM_P2
2022/07/07 00:02:13;;;;;;;5.30;3.60;;;;;;;19.40;52.77;100145.09;5094328;28;20102;-61
2022/07/07 00:04:40;;;;;;;4.18;3.20;;;;;;;19.40;52.59;100150.44;5094336;28;20060;-63
2022/07/07 00:07:07;;;;;;;7.53;3.58;;;;;;;19.39;52.61;100148.72;5094306;28;20043;-63
2022/07/07 00:09:34;;;;;;;5.25;3.38;;;;;;;19.41;52.50;100149.47;5094282;28;20051;-62
2022/07/07 00:12:00;;;;;;;4.88;3.47;;;;;;;19.41;52.94;100138.78;5094683;28;20570;-63
2022/07/07 00:14:28;;;;;;;5.97;3.80;;;;;;;19.43;53.08;100133.31;5094224;28;20389;-61
2022/07/07 00:16:54;;;;;;;6.03;3.70;;;;;;;19.45;53.20;100134.00;5093032;28;20527;-63
2022/07/07 00:19:21;;;;;;;4.68;3.67;;;;;;;19.45;53.28;100131.34;5092686;28;20139;-64
2022/07/07 00:21:48;;;;;;;6.80;3.75;;;;;;;19.43;53.07;100128.78;5094127;28;20055;-62
2022/07/07 00:24:14;;;;;;;5.20;3.60;;;;;;;19.43;53.38;100128.78;5094149;28;20091;-63
2022/07/07 00:26:41;;;;;;;4.82;3.92;;;;;;;19.42;53.63;100128.94;5093848;28;20515;-62
2022/07/07 00:29:08;;;;;;;4.97;3.65;;;;;;;19.42;53.46;100123.59;5093651;28;20054;-63
2022/07/07 00:31:34;;;;;;;6.70;4.07;;;;;;;19.42;53.82;100120.91;5093751;28;20067;-64
2022/07/07 00:34:01;;;;;;;6.53;3.90;;;;;;;19.42;53.88;100108.44;5093897;28;20106;-62
2022/07/07 00:36:28;;;;;;;5.72;4.22;;;;;;;19.45;54.27;100109.97;5093763;28;20056;-61
2022/07/07 00:38:54;;;;;;;6.85;4.10;;;;;;;19.42;54.20;100111.09;5093534;28;20052;-62
2022/07/07 00:41:21;;;;;;;6.20;4.38;;;;;;;19.42;54.24;100104.91;5093631;28;20056;-66
2022/07/07 00:43:48;;;;;;;6.00;4.25;;;;;;;19.42;54.32;100099.56;5093726;28;20052;-62
2022/07/07 00:46:15;;;;;;;6.45;4.18;;;;;;;19.40;54.69;100099.72;5093607;28;20051;-64
2022/07/07 00:48:42;;;;;;;6.47;4.70;;;;;;;19.39;54.75;100088.19;5093341;28;20048;-62
2022/07/07 00:51:10;;;;;;;8.07;4.72;;;;;;;19.36;54.86;100083.13;5093454;28;20044;-62
2022/07/07 00:53:39;;;;;;;5.90;4.78;;;;;;;19.35;54.88;100088.59;5092255;28;20048;-63
2022/07/07 00:56:07;;;;;;;7.22;4.50;;;;;;;19.34;54.86;100087.75;5093345;28;20051;-63
2022/07/07 00:58:33;;;;;;;6.15;4.53;;;;;;;19.32;55.13;100079.03;5092048;28;20052;-64
2022/07/07 01:01:01;;;;;;;7.85;4.82;;;;;;;19.33;55.26;100090.56;5093105;28;20139;-63
2022/07/07 01:03:29;;;;;;;8.15;5.30;;;;;;;19.32;55.39;100078.22;5091559;28;20047;-64
2022/07/07 01:05:58;;;;;;;6.53;4.32;;;;;;;19.31;55.38;100085.34;5092172;28;20044;-62
2022/07/07 01:08:26;;;;;;;7.63;4.75;;;;;;;19.31;55.26;100076.50;5092029;28;20693;-62
2022/07/07 01:10:53;;;;;;;9.20;4.85;;;;;;;19.29;55.55;100071.31;5091899;28;20056;-63
2022/07/07 01:13:19;;;;;;;6.40;4.95;;;;;;;19.28;55.58;100072.28;5093083;28;20066;-65
2022/07/07 01:15:46;;;;;;;7.28;4.88;;;;;;;19.28;55.64;100069.63;5092871;28;20077;-62
2022/07/07 01:18:13;;;;;;;5.95;4.97;;;;;;;19.26;55.73;100061.75;5092686;28;20549;-62
2022/07/07 01:20:45;;;;;;;5.85;4.82;;;;;;;19.25;56.76;100062.72;5093252;28;20056;-63
2022/07/07 01:23:13;;;;;;;7.25;5.53;;;;;;;19.27;56.12;100054.59;5091758;28;20055;-62
2022/07/07 01:25:40;;;;;;;8.48;5.78;;;;;;;19.27;56.14;100046.56;5091611;28;20048;-63
2022/07/07 01:28:07;;;;;;;8.13;5.28;;;;;;;19.26;55.74;100036.88;5092536;28;20051;-63
2022/07/07 01:30:33;;;;;;;8.07;5.35;;;;;;;19.25;56.23;100033.38;5092888;28;20048;-62
2022/07/07 01:33:00;;;;;;;8.30;5.63;;;;;;;19.25;56.34;100024.53;5092652;28;20059;-63
2022/07/07 01:35:27;;;;;;;5.97;5.38;;;;;;;19.24;56.39;100026.34;5092619;28;20097;-62
2022/07/07 01:37:53;;;;;;;7.72;5.18;;;;;;;19.24;56.57;100017.50;5092773;28;20052;-61
2022/07/07 01:40:20;;;;;;;7.82;5.60;;;;;;;19.23;56.42;100016.66;5092706;28;20059;-63
2022/07/07 01:42:46;;;;;;;6.25;5.60;;;;;;;19.22;56.72;100022.97;5092544;28;20443;-62
2022/07/07 01:45:13;;;;;;;6.93;6.20;;;;;;;19.20;56.79;100016.94;5092572;28;20040;-61
2022/07/07 01:47:40;;;;;;;7.85;5.47;;;;;;;19.19;56.81;100014.41;5092617;28;20052;-61
2022/07/07 01:50:07;;;;;;;6.78;5.40;;;;;;;19.18;56.97;100008.22;5092559;28;20078;-65
2022/07/07 01:52:35;;;;;;;8.77;5.45;;;;;;;19.20;56.77;100010.75;5092349;28;20048;-62
2022/07/07 01:55:02;;;;;;;6.70;5.93;;;;;;;19.20;56.79;100016.06;5092411;28;20052;-65
2022/07/07 01:57:29;;;;;;;7.45;5.20;;;;;;;19.19;56.77;100004.56;5090906;28;20131;-62
2022/07/07 01:59:55;;;;;;;10.77;5.53;;;;;;;19.20;56.75;100014.25;5091823;28;20059;-61
2022/07/07 02:02:22;;;;;;;8.80;5.43;;;;;;;19.22;57.02;100008.78;5092190;28;20040;-62
2022/07/07 02:04:49;;;;;;;7.10;5.57;;;;;;;19.23;57.24;100010.47;5092314;28;20134;-63
2022/07/07 02:07:15;;;;;;;8.38;5.15;;;;;;;19.23;57.34;100006.00;5092251;28;20052;-62
2022/07/07 02:09:42;;;;;;;5.43;4.85;;;;;;;19.26;57.28;99999.53;5091824;28;20062;-63
2022/07/07 02:12:09;;;;;;;6.82;5.90;;;;;;;19.27;57.00;100006.53;5091857;28;20048;-64
2022/07/07 02:14:37;;;;;;;9.07;6.03;;;;;;;19.29;57.27;99999.25;5091141;28;20051;-61
2022/07/07 02:17:04;;;;;;;7.10;5.55;;;;;;;19.30;57.16;99998.28;5091949;28;20071;-61
2022/07/07 02:19:31;;;;;;;9.13;5.57;;;;;;;19.32;57.23;99987.47;5091660;28;20079;-63
2022/07/07 02:21:58;;;;;;;9.82;6.32;;;;;;;19.32;57.12;99988.28;5090621;28;20058;-62
2022/07/07 02:24:24;;;;;;;8.60;5.78;;;;;;;19.32;57.05;99990.13;5090560;28;20047;-61
2022/07/07 02:26:51;;;;;;;8.57;6.22;;;;;;;19.31;57.35;99997.28;5090255;28;20051;-63
2022/07/07 02:29:17;;;;;;;7.25;5.70;;;;;;;19.31;57.42;99997.28;5091244;28;20052;-62
2022/07/07 02:31:44;;;;;;;8.88;5.95;;;;;;;19.30;57.94;99990.25;5091760;28;20044;-62
2022/07/07 02:34:11;;;;;;;7.00;5.53;;;;;;;19.30;57.77;99989.41;5091334;28;20052;-61
2022/07/07 02:36:37;;;;;;;7.32;5.35;;;;;;;19.28;57.94;99992.22;5091704;28;20059;-63
2022/07/07 02:39:04;;;;;;;9.02;6.20;;;;;;;19.26;58.10;99983.53;5091180;28;20058;-64
2022/07/07 02:41:31;;;;;;;6.03;5.13;;;;;;;19.20;58.42;99984.06;5091189;28;20542;-62
2022/07/07 02:43:57;;;;;;;6.13;4.70;;;;;;;19.15;58.71;99979.16;5091485;28;20101;-65
2022/07/07 02:46:24;;;;;;;5.47;4.82;;;;;;;19.09;58.92;99980.53;5091331;28;20055;-65
2022/07/07 02:48:50;;;;;;;6.78;5.05;;;;;;;19.03;59.08;99978.41;5091152;28;20052;-64
2022/07/07 02:51:17;;;;;;;6.55;4.60;;;;;;;18.98;59.56;99976.13;5091371;28;20063;-63
2022/07/07 02:53:44;;;;;;;6.38;5.03;;;;;;;18.94;59.89;99968.53;5091048;28;20044;-64
2022/07/07 02:56:10;;;;;;;7.13;5.18;;;;;;;18.91;59.88;99963.50;5090995;28;20056;-62
2022/07/07 02:58:37;;;;;;;6.45;5.70;;;;;;;18.86;60.45;99959.41;5091105;28;20040;-63
2022/07/07 03:01:04;;;;;;;6.10;5.45;;;;;;;18.83;60.30;99954.34;5090962;28;20051;-61
2022/07/07 03:03:31;;;;;;;6.68;5.90;;;;;;;18.80;60.47;99943.94;5091176;28;20139;-63
2022/07/07 03:05:58;;;;;;;6.97;6.28;;;;;;;18.79;60.90;99934.25;5091018;28;20048;-62
2022/07/07 03:08:24;;;;;;;7.97;6.82;;;;;;;18.78;61.06;99937.91;5089492;28;20044;-64
2022/07/07 03:10:58;;;;;;;7.15;6.40;;;;;;;18.78;60.94;99945.06;5091080;28;20052;-65
2022/07/07 03:13:24;;;;;;;8.82;6.40;;;;;;;18.78;60.99;99935.25;5089544;28;20511;-64
2022/07/07 03:15:51;;;;;;;9.90;7.28;;;;;;;18.77;61.30;99940.72;5090850;28;20082;-63
2022/07/07 03:18:18;;;;;;;8.48;6.75;;;;;;;18.77;61.45;99933.56;5089462;28;20139;-65
2022/07/07 03:20:46;;;;;;;8.27;6.45;;;;;;;18.77;61.48;99932.72;5090637;28;20492;-63
2022/07/07 03:23:12;;;;;;;9.00;6.70;;;;;;;18.77;61.49;99928.22;5090689;28;20066;-66
2022/07/07 03:25:39;;;;;;;7.90;6.72;;;;;;;18.77;61.54;99925.56;5089126;28;20484;-64
2022/07/07 03:28:05;;;;;;;8.80;6.95;;;;;;;18.78;61.99;99918.38;5090420;28;20492;-63
2022/07/07 03:30:32;;;;;;;9.75;6.20;;;;;;;18.78;61.97;99908.56;5090491;28;20055;-64
2022/07/07 03:32:59;;;;;;;9.95;6.40;;;;;;;18.77;62.26;99914.03;5090116;28;20055;-64
2022/07/07 03:35:25;;;;;;;8.60;6.50;;;;;;;18.77;62.25;99900.72;5089303;28;20044;-64
2022/07/07 03:37:52;;;;;;;9.85;6.60;;;;;;;18.77;62.47;99898.91;5090663;28;20139;-60
2022/07/07 03:40:19;;;;;;;9.23;6.70;;;;;;;18.80;62.77;99900.44;5090473;28;20087;-64
2022/07/07 03:42:46;;;;;;;7.22;6.28;;;;;;;18.78;62.54;99897.91;5089650;28;20087;-64
2022/07/07 03:45:12;;;;;;;9.50;6.55;;;;;;;18.79;62.51;99896.91;5090566;28;20438;-68
2022/07/07 03:47:39;;;;;;;8.15;6.50;;;;;;;18.81;63.04;99897.63;5090472;28;20044;-63
2022/07/07 03:50:06;;;;;;;6.85;6.15;;;;;;;18.82;63.19;99899.31;5090241;28;20434;-64
2022/07/07 03:52:33;;;;;;;7.28;6.10;;;;;;;18.84;62.86;99897.34;5090449;28;20120;-65
2022/07/07 03:54:59;;;;;;;10.27;5.90;;;;;;;18.86;62.86;99900.72;5090370;28;20048;-64
2022/07/07 03:57:26;;;;;;;9.63;6.47;;;;;;;18.87;63.09;99890.88;5090462;28;20054;-64
2022/07/07 03:59:52;;;;;;;6.07;5.38;;;;;;;18.89;63.28;99896.94;5090325;28;20454;-63
2022/07/07 04:02:19;;;;;;;8.07;5.57;;;;;;;18.91;63.08;99902.16;5090417;28;20048;-66
2022/07/07 04:04:45;;;;;;;7.43;6.07;;;;;;;18.92;63.40;99895.81;5089190;28;20044;-64
2022/07/07 04:07:12;;;;;;;10.52;6.72;;;;;;;18.93;63.44;99892.16;5090169;28;20408;-63
2022/07/07 04:09:39;;;;;;;8.60;6.10;;;;;;;18.94;63.52;99897.38;5090249;28;20058;-64
2022/07/07 04:12:06;;;;;;;8.05;5.70;;;;;;;18.94;63.80;99897.38;5088920;28;20048;-64
2022/07/07 04:14:32;;;;;;;7.90;5.97;;;;;;;18.94;63.60;99892.03;5090410;28;20048;-63
2022/07/07 04:16:59;;;;;;;7.50;5.65;;;;;;;18.96;63.75;99889.22;5090202;28;20051;-64
2022/07/07 04:19:25;;;;;;;7.05;5.97;;;;;;;18.93;63.93;99898.34;5089894;28;20515;-64
2022/07/07 04:21:52;;;;;;;5.32;4.82;;;;;;;18.92;63.66;99899.34;5090493;28;20044;-63
2022/07/07 04:24:19;;;;;;;5.72;3.97;;;;;;;18.90;64.11;99901.28;5090489;28;20403;-62
2022/07/07 04:26:45;;;;;;;3.55;2.97;;;;;;;18.87;64.08;99910.41;5090146;28;20088;-63
2022/07/07 04:29:12;;;;;;;2.03;1.70;;;;;;;18.83;64.03;99902.81;5089636;28;20052;-65
2022/07/07 04:31:43;;;;;;;1.70;1.60;;;;;;;18.78;63.78;99905.91;5090034;28;20052;-65
2022/07/07 04:34:13;;;;;;;2.42;1.60;;;;;;;18.72;64.67;99898.44;5090228;28;20048;-65
2022/07/07 04:36:40;;;;;;;3.80;1.63;;;;;;;18.70;63.73;99884.41;5090550;28;20090;-65
2022/07/07 04:39:08;;;;;;;2.75;2.33;;;;;;;18.67;64.05;99892.69;5093054;28;20059;-64
2022/07/07 04:41:35;;;;;;;2.25;2.05;;;;;;;18.64;64.38;99883.13;5092643;28;20062;-64
2022/07/07 04:44:03;;;;;;;2.30;2.10;;;;;;;18.61;64.52;99889.59;5093498;28;20055;-65
2022/07/07 04:46:29;;;;;;;2.42;2.13;;;;;;;18.60;64.59;99887.91;5092281;28;20055;-63
2022/07/07 04:48:56;;;;;;;2.63;2.03;;;;;;;18.60;65.07;99893.25;5093460;28;20139;-65
2022/07/07 04:51:23;;;;;;;2.50;1.98;;;;;;;18.59;65.20;99888.91;5093700;28;20048;-63
2022/07/07 04:53:50;;;;;;;4.18;1.67;;;;;;;18.59;65.42;99878.22;5092076;28;20052;-63
2022/07/07 04:56:16;;;;;;;1.48;1.35;;;;;;;18.59;65.30;99880.91;5092310;28;20048;-64
2022/07/07 04:58:43;;;;;;;3.60;1.38;;;;;;;18.58;65.52;99884.53;5093107;28;20414;-64
2022/07/07 05:01:10;;;;;;;2.63;1.52;;;;;;;18.59;65.49;99890.72;5093587;28;20064;-63
2022/07/07 05:03:36;;;;;;;1.58;1.48;;;;;;;18.59;65.52;99888.91;5093321;28;20055;-66
2022/07/07 05:06:03;;;;;;;4.22;1.50;;;;;;;18.59;65.48;99885.38;5093581;28;20048;-63
2022/07/07 05:08:30;;;;;;;2.38;1.70;;;;;;;18.59;65.25;99888.91;5093054;28;20048;-63
2022/07/07 05:10:57;;;;;;;1.95;1.48;;;;;;;18.58;65.56;99884.53;5093123;28;20056;-65
2022/07/07 05:13:23;;;;;;;2.58;1.60;;;;;;;18.59;65.68;99890.72;5092854;28;20621;-63
2022/07/07 05:15:50;;;;;;;2.53;1.70;;;;;;;18.59;65.81;99888.91;5093338;28;20101;-69
2022/07/07 05:18:17;;;;;;;2.83;1.60;;;;;;;18.59;66.01;99880.91;5092767;28;20134;-65
2022/07/07 05:20:43;;;;;;;3.65;1.85;;;;;;;18.61;65.79;99881.59;5091731;28;20451;-63
2022/07/07 05:23:11;;;;;;;3.35;1.70;;;;;;;18.61;66.03;99894.06;5092792;28;20052;-64
2022/07/07 05:25:37;;;;;;;2.88;1.60;;;;;;;18.64;66.49;99895.66;5091607;28;20631;-63
2022/07/07 05:28:04;;;;;;;2.85;1.67;;;;;;;18.64;66.39;99887.66;5091377;28;20052;-68
2022/07/07 05:30:31;;;;;;;1.60;1.42;;;;;;;18.65;66.08;99892.00;5092952;28;20052;-62
2022/07/07 05:32:57;;;;;;;2.17;1.40;;;;;;;18.66;66.01;99894.53;5092924;28;20052;-63
2022/07/07 05:35:24;;;;;;;1.65;1.25;;;;;;;18.69;66.12;99898.75;5092823;28;20051;-64
2022/07/07 05:37:51;;;;;;;4.93;1.70;;;;;;;18.68;66.39;99902.34;5092837;28;20055;-63
2022/07/07 05:40:17;;;;;;;4.32;1.90;;;;;;;18.69;66.54;99904.06;5092162;28;20109;-65
2022/07/07 05:42:44;;;;;;;2.05;1.60;;;;;;;18.69;66.10;99906.75;5092574;28;20051;-64
2022/07/07 05:45:17;;;;;;;3.65;1.45;;;;;;;18.68;66.33;99915.69;5092696;28;20056;-64
2022/07/07 05:47:44;;;;;;;1.95;1.45;;;;;;;18.68;66.30;99915.69;5092543;28;20565;-65
2022/07/07 05:50:11;;;;;;;2.83;1.50;;;;;;;18.67;66.47;99925.53;5092012;28;20101;-67
2022/07/07 05:52:38;;;;;;;1.38;1.20;;;;;;;18.67;66.76;99922.88;5092329;28;20058;-64
2022/07/07 05:55:07;;;;;;;3.08;1.48;;;;;;;18.67;66.57;99930.00;5092114;28;20480;-64
2022/07/07 05:57:34;;;;;;;4.10;1.17;;;;;;;18.67;66.72;99924.69;5092525;28;20150;-63
2022/07/07 06:00:01;;;;;;;2.75;1.30;;;;;;;18.68;66.96;99927.22;5091935;28;20056;-64
2022/07/07 06:02:28;;;;;;;2.25;1.13;;;;;;;18.71;66.63;99928.75;5092456;28;20040;-63
2022/07/07 06:04:54;;;;;;;2.35;1.20;;;;;;;18.74;66.78;99923.16;5092093;28;20048;-63
2022/07/07 06:07:22;;;;;;;3.15;1.10;;;;;;;18.79;66.81;99928.91;5092269;28;20056;-64
2022/07/07 06:09:48;;;;;;;2.90;0.93;;;;;;;18.82;66.86;99933.13;5091623;28;20052;-63
2022/07/07 06:12:15;;;;;;;4.63;1.05;;;;;;;18.85;66.31;99944.38;5092252;28;20055;-64
2022/07/07 06:14:41;;;;;;;3.50;0.95;;;;;;;18.90;66.46;99943.97;5090840;28;20051;-64
2022/07/07 06:17:10;;;;;;;2.40;1.30;;;;;;;18.91;66.20;99942.97;5091715;28;20058;-65
2022/07/07 06:19:37;;;;;;;1.38;0.70;;;;;;;18.94;66.14;99963.19;5091699;28;20437;-65
2022/07/07 06:22:04;;;;;;;1.50;0.98;;;;;;;18.97;65.88;99965.59;5091737;28;20048;-64
2022/07/07 06:24:31;;;;;;;2.88;0.63;;;;;;;18.99;65.52;99964.47;5090539;28;20044;-64
2022/07/07 06:26:57;;;;;;;1.20;0.60;;;;;;;19.02;65.45;99966.88;5091577;28;20047;-63
2022/07/07 06:29:24;;;;;;;1.73;0.90;;;;;;;19.04;65.02;99969.41;5091409;28;20044;-65
2022/07/07 06:31:50;;;;;;;2.05;1.13;;;;;;;19.07;65.09;99971.00;5091731;28;20419;-65
2022/07/07 06:34:17;;;;;;;4.85;0.85;;;;;;;19.09;65.06;99983.22;5091551;28;20040;-65
2022/07/07 06:36:44;;;;;;;1.98;0.85;;;;;;;19.10;65.09;99984.06;5091475;28;20056;-63
2022/07/07 06:39:10;;;;;;;7.35;0.88;;;;;;;19.12;64.98;99987.41;5091612;28;20117;-63
2022/07/07 06:41:38;;;;;;;1.42;0.70;;;;;;;19.16;65.24;99987.97;5090032;28;20069;-64
2022/07/07 06:44:05;;;;;;;4.32;0.90;;;;;;;19.19;65.15;99988.56;5090346;28;20451;-64
2022/07/07 06:46:32;;;;;;;6.65;1.17;;;;;;;19.21;65.04;99991.09;5090129;28;20095;-63
2022/07/07 06:48:59;;;;;;;4.55;1.20;;;;;;;19.23;64.96;99989.13;5089666;28;20044;-64
2022/07/07 06:51:26;;;;;;;1.25;0.90;;;;;;;19.24;64.79;99999.66;5091078;28;20048;-63
2022/07/07 06:53:53;;;;;;;5.15;1.50;;;;;;;19.25;64.23;100006.69;5091261;28;20067;-65
2022/07/07 06:56:19;;;;;;;2.30;1.05;;;;;;;19.25;64.44;100004.00;5091260;28;20124;-65
2022/07/07 06:58:46;;;;;;;2.92;1.23;;;;;;;19.27;64.59;100007.41;5091151;28;20044;-64
2022/07/07 07:01:12;;;;;;;3.22;1.27;;;;;;;19.31;64.77;100015.09;5090683;28;20117;-64
2022/07/07 07:03:39;;;;;;;4.72;1.00;;;;;;;19.33;64.30;100015.84;5091140;28;20447;-65
2022/07/07 07:06:06;;;;;;;4.22;0.98;;;;;;;19.37;64.47;100014.56;5090875;28;20590;-63
2022/07/07 07:08:33;;;;;;;6.22;1.45;;;;;;;19.42;64.45;100008.81;5091064;28;20127;-65
2022/07/07 07:11:00;;;;;;;4.55;1.10;;;;;;;19.45;63.69;100027.22;5090921;28;20048;-65
2022/07/07 07:13:27;;;;;;;3.20;0.98;;;;;;;19.48;63.83;100016.28;5090819;28;20065;-64
2022/07/07 07:15:54;;;;;;;4.25;1.20;;;;;;;19.52;63.87;100021.19;5090810;28;20147;-65
2022/07/07 07:18:21;;;;;;;5.43;1.20;;;;;;;19.57;64.14;100020.78;5090533;28;20101;-63
2022/07/07 07:20:47;;;;;;;4.95;1.20;;;;;;;19.65;64.46;100028.94;5090698;28;20094;-66
2022/07/07 07:23:14;;;;;;;5.65;1.30;;;;;;;19.74;63.83;100034.41;5090389;28;20566;-65
2022/07/07 07:25:40;;;;;;;7.72;1.65;;;;;;;19.83;63.81;100033.56;5090758;28;20048;-64
2022/07/07 07:28:08;;;;;;;5.53;1.33;;;;;;;19.90;62.97;100042.72;5090627;28;20155;-63
2022/07/07 07:30:35;;;;;;;8.57;1.58;;;;;;;19.96;63.05;100043.94;5089584;28;20052;-64
2022/07/07 07:33:01;;;;;;;3.30;1.17;;;;;;;20.00;62.61;100044.56;5090008;28;20040;-64
2022/07/07 07:35:28;;;;;;;2.17;0.90;;;;;;;20.02;63.03;100040.75;5089532;28;20079;-64
2022/07/07 07:37:55;;;;;;;3.72;1.20;;;;;;;20.04;62.14;100040.63;5090563;28;20044;-64
2022/07/07 07:40:21;;;;;;;5.75;1.60;;;;;;;20.05;61.82;100047.63;5090440;28;20059;-66
2022/07/07 07:42:48;;;;;;;3.65;1.15;;;;;;;20.04;61.66;100062.00;5090596;28;20056;-65
2022/07/07 07:45:15;;;;;;;3.83;1.30;;;;;;;20.01;60.97;100064.94;5090709;28;20052;-63
2022/07/07 07:47:44;;;;;;;4.78;0.98;;;;;;;19.96;61.02;100057.31;5090447;28;20105;-64
2022/07/07 07:50:20;;;;;;;3.47;1.33;;;;;;;19.89;61.54;100067.72;5090519;28;20052;-64
2022/07/07 07:52:48;;;;;;;6.10;1.30;;;;;;;19.91;62.20;100073.78;5089351;28;20052;-65
2022/07/07 07:55:18;;;;;;;3.67;1.25;;;;;;;19.92;61.93;100070.13;5089164;28;20492;-63
2022/07/07 07:57:45;;;;;;;3.30;0.90;;;;;;;19.97;61.97;100067.03;5090506;28;20048;-64
2022/07/07 08:00:15;;;;;;;3.75;1.02;;;;;;;20.03;62.05;100070.97;5088832;28;20078;-65
2022/07/07 08:02:42;;;;;;;2.28;1.05;;;;;;;20.12;62.04;100074.63;5089432;28;20051;-63
2022/07/07 08:05:10;;;;;;;2.67;1.15;;;;;;;20.18;61.25;100080.25;5089054;28;20056;-65
2022/07/07 08:07:38;;;;;;;3.90;1.17;;;;;;;20.21;60.44;100089.81;5089365;28;20076;-63
2022/07/07 08:10:05;;;;;;;3.10;1.13;;;;;;;20.23;60.02;100081.66;5088903;28;20553;-65
2022/07/07 08:12:32;;;;;;;7.13;1.35;;;;;;;20.21;59.66;100086.28;5089887;28;20480;-63
2022/07/07 08:14:58;;;;;;;3.72;1.05;;;;;;;20.18;59.70;100088.28;5094087;28;20489;-66
2022/07/07 08:17:25;;;;;;;5.05;1.30;;;;;;;20.16;59.79;100084.91;5094266;28;20060;-64
2022/07/07 08:19:52;;;;;;;4.50;1.40;;;;;;;20.16;60.41;100081.38;5093939;28;20102;-64
2022/07/07 08:22:19;;;;;;;2.92;1.42;;;;;;;20.16;59.97;100087.59;5094268;28;20093;-64
2022/07/07 08:24:45;;;;;;;3.17;1.10;;;;;;;20.17;60.49;100091.94;5092857;28;20401;-64
2022/07/07 08:27:12;;;;;;;5.65;1.27;;;;;;;20.22;60.48;100091.50;5093972;28;20044;-64
2022/07/07 08:29:39;;;;;;;4.07;1.00;;;;;;;20.30;61.01;100096.16;5093849;28;20068;-64
2022/07/07 08:32:07;;;;;;;4.88;1.13;;;;;;;20.41;60.67;100105.84;5094082;28;20051;-63
2022/07/07 08:34:34;;;;;;;3.75;1.25;;;;;;;20.53;60.44;100119.88;5092611;28;20065;-63
2022/07/07 08:37:08;;;;;;;4.18;1.42;;;;;;;20.62;59.96;100112.81;5093876;28;20044;-64
2022/07/07 08:39:35;;;;;;;4.70;1.50;;;;;;;20.70;59.73;100119.13;5093505;28;20048;-63
2022/07/07 08:42:02;;;;;;;4.68;1.20;;;;;;;20.79;58.96;100117.41;5093728;28;20436;-64
2022/07/07 08:44:28;;;;;;;4.15;1.38;;;;;;;20.88;59.07;100130.94;5093729;28;20048;-63
2022/07/07 08:46:55;;;;;;;5.85;1.27;;;;;;;20.95;58.89;100135.59;5093821;28;20074;-63
2022/07/07 08:49:21;;;;;;;4.82;1.00;;;;;;;21.03;57.96;100133.97;5092125;28;20063;-64
2022/07/07 08:51:48;;;;;;;6.80;1.40;;;;;;;21.09;57.84;100125.38;5093663;28;20052;-63
2022/07/07 08:54:16;;;;;;;3.42;1.00;;;;;;;21.15;57.50;100122.09;5093350;28;20043;-64
2022/07/07 08:56:43;;;;;;;3.78;1.00;;;;;;;21.22;57.71;100135.75;5093582;28;20048;-63
2022/07/07 08:59:13;;;;;;;3.58;1.20;;;;;;;21.27;57.80;100135.31;5093364;28;20055;-64
2022/07/07 09:01:51;;;;;;;2.97;1.10;;;;;;;21.34;57.73;100131.03;5093487;28;20620;-63
2022/07/07 09:04:18;;;;;;;3.17;1.05;;;;;;;21.42;57.57;100130.31;5093165;28;20492;-65
2022/07/07 09:07:03;;;;;;;3.72;1.20;;;;;;;21.44;56.13;100147.91;5092034;28;20056;-63
2022/07/07 09:09:36;;;;;;;6.57;1.50;;;;;;;21.52;56.63;100151.69;5093698;28;20075;-65
2022/07/07 09:12:04;;;;;;;5.60;1.10;;;;;;;21.59;56.63;100139.34;5093241;28;20078;-64
2022/07/07 09:14:42;;;;;;;3.25;1.13;;;;;;;21.66;56.83;100145.81;5092094;28;20044;-63
2022/07/07 09:17:15;;;;;;;3.28;1.30;;;;;;;21.79;56.92;100147.31;5092952;28;20059;-63
2022/07/07 09:19:43;;;;;;;3.70;1.10;;;;;;;21.91;56.61;100148.78;5093122;28;20074;-64
2022/07/07 09:22:13;;;;;;;4.63;1.38;;;;;;;21.99;55.08;100161.41;5093011;28;20048;-62
2022/07/07 09:24:54;;;;;;;3.33;1.30;;;;;;;21.98;55.03;100171.28;5092906;28;20063;-63
2022/07/07 09:27:21;;;;;;;4.65;1.10;;;;;;;21.98;54.53;100179.31;5091581;28;20060;-64
2022/07/07 09:29:47;;;;;;;2.88;1.10;;;;;;;21.88;54.19;100189.28;5092473;28;20494;-64
2022/07/07 09:32:14;;;;;;;3.38;1.10;;;;;;;21.74;54.21;100178.06;5092928;28;20051;-63
2022/07/07 09:34:40;;;;;;;2.50;0.90;;;;;;;21.60;54.42;100183.88;5092838;28;20063;-64
2022/07/07 09:39:57;;;;;;;3.33;0.98;;;;;;;21.32;54.41;100206.16;5092491;28;20052;-65
2022/07/07 09:42:39;;;;;;;4.03;0.90;;;;;;;21.27;55.76;100196.88;5091595;28;20056;-63
2022/07/07 09:45:09;;;;;;;3.30;1.05;;;;;;;21.21;56.55;100201.84;5092548;28;20495;-64
2022/07/07 09:47:37;;;;;;;2.03;0.88;;;;;;;21.25;56.64;100205.06;5092597;28;20051;-64
2022/07/07 09:50:14;;;;;;;1.90;0.90;;;;;;;21.30;56.76;100210.00;5092376;28;20048;-63
2022/07/07 09:52:45;;;;;;;2.92;0.90;;;;;;;21.41;57.03;100217.00;5091143;28;20056;-64
2022/07/07 09:55:13;;;;;;;3.72;0.82;;;;;;;21.54;57.47;100209.47;5090916;28;20485;-64
2022/07/07 09:57:42;;;;;;;1.58;0.77;;;;;;;21.68;56.50;100210.78;5092495;28;20043;-64
2022/07/07 10:00:09;;;;;;;2.13;0.70;;;;;;;21.86;56.45;100218.91;5092140;28;20614;-65
2022/07/07 10:02:37;;;;;;;2.05;0.90;;;;;;;22.01;55.77;100213.00;5092137;28;20094;-63
2022/07/07 10:05:05;;;;;;;2.88;1.17;;;;;;;22.16;55.84;100220.56;5090917;28;20105;-64
2022/07/07 10:07:34;;;;;;;2.38;0.85;;;;;;;22.31;56.28;100212.81;5090907;28;20131;-62
2022/07/07 10:10:12;;;;;;;3.28;1.05;;;;;;;22.46;55.79;100218.50;5092105;28;20044;-63
2022/07/07 10:12:49;;;;;;;0.77;0.40;;;;;;;22.61;54.98;100219.63;5091967;28;20048;-64
2022/07/07 10:15:16;;;;;;;2.72;0.75;;;;;;;22.74;54.40;100227.31;5092014;28;20043;-63
2022/07/07 10:17:43;;;;;;;4.07;0.73;;;;;;;22.79;53.19;100229.50;5091766;28;20048;-62
2022/07/07 10:20:11;;;;;;;3.45;0.80;;;;;;;22.72;52.41;100240.03;5091603;28;20527;-63
2022/07/07 10:22:39;;;;;;;1.35;0.43;;;;;;;22.61;52.47;100246.47;5090391;28;20062;-64
2022/07/07 10:25:09;;;;;;;2.47;0.45;;;;;;;22.43;52.09;100245.59;5091752;28;20047;-65
2022/07/07 10:27:42;;;;;;;0.82;0.40;;;;;;;22.28;52.69;100242.63;5090497;28;20059;-63
2022/07/07 10:30:26;;;;;;;1.20;0.47;;;;;;;22.16;53.48;100237.47;5090113;28;20056;-63
2022/07/07 10:32:55;;;;;;;2.45;0.50;;;;;;;22.07;53.59;100235.69;5091883;28;20404;-64
2022/07/07 10:35:23;;;;;;;3.55;0.60;;;;;;;22.04;54.24;100244.03;5090781;28;20432;-64
2022/07/07 10:37:52;;;;;;;0.57;0.40;;;;;;;22.04;53.92;100247.56;5090331;28;20040;-63
2022/07/07 10:40:30;;;;;;;1.23;0.50;;;;;;;22.08;54.60;100248.09;5089911;28;20511;-63
2022/07/07 10:43:19;;;;;;;1.80;0.57;;;;;;;22.22;55.14;100266.38;5091432;28;20050;-64
2022/07/07 10:45:48;;;;;;;1.73;0.50;;;;;;;22.43;55.88;100259.84;5091520;28;20059;-63
2022/07/07 10:48:47;;;;;;;1.88;0.30;;;;;;;22.67;55.97;100253.06;5089904;28;20067;-64
2022/07/07 10:51:24;;;;;;;3.08;0.52;;;;;;;23.05;56.41;100247.47;5091298;28;20167;-63
2022/07/07 10:54:00;;;;;;;1.30;0.45;;;;;;;23.45;54.29;100255.13;5090095;28;20051;-63
2022/07/07 10:56:47;;;;;;;1.83;0.52;;;;;;;23.84;54.43;100264.53;5089676;28;20130;-64
2022/07/07 10:59:14;;;;;;;2.15;0.40;;;;;;;24.14;52.78;100254.25;5090889;28;20539;-63
2022/07/07 11:02:00;;;;;;;1.63;0.50;;;;;;;24.25;50.18;100266.53;5090999;28;20059;-65
2022/07/07 11:04:46;;;;;;;0.60;0.30;;;;;;;24.27;50.03;100288.72;5091072;28;20067;-65
2022/07/07 11:07:21;;;;;;;2.03;0.50;;;;;;;24.18;50.07;100280.63;5089951;28;20080;-65
2022/07/07 11:10:03;;;;;;;0.95;0.30;;;;;;;23.94;50.58;100292.13;5089490;28;20068;-65
2022/07/07 11:12:44;;;;;;;1.30;0.30;;;;;;;23.76;51.93;100281.47;5090668;28;20044;-64
2022/07/07 11:15:14;;;;;;;1.55;0.40;;;;;;;23.70;52.25;100291.03;5089640;28;20056;-64
2022/07/07 11:17:52;;;;;;;3.00;0.40;;;;;;;23.65;51.92;100291.50;5089722;28;20085;-64
2022/07/07 11:20:21;;;;;;;1.63;0.52;;;;;;;23.64;52.26;100289.81;5090633;28;20422;-63
2022/07/07 11:23:10;;;;;;;0.50;0.40;;;;;;;23.55;51.98;100294.31;5089612;28;20070;-63
2022/07/07 11:25:38;;;;;;;0.32;0.30;;;;;;;23.55;52.00;100299.69;5090896;28;20047;-63
2022/07/07 11:28:08;;;;;;;0.35;0.30;;;;;;;23.50;51.55;100312.75;5089370;28;20056;-65
2022/07/07 11:30:37;;;;;;;0.30;0.30;;;;;;;23.48;51.64;100303.16;5090725;28;20475;-64
2022/07/07 11:33:04;;;;;;;1.60;0.47;;;;;;;23.49;52.63;100305.69;5090975;28;20051;-64
2022/07/07 11:35:36;;;;;;;1.13;0.40;;;;;;;23.52;52.26;100310.72;5090616;28;20048;-63
2022/07/07 11:38:05;;;;;;;2.38;0.50;;;;;;;23.61;52.82;100308.09;5089523;28;20048;-63